sensor_id;sensor_type;location;lat;lon;timestamp;P1;durP1;ratioP1;P2;durP2;ratioP2
7791;SDS011;3940;49.892;10.886;2022-10-30T00:02:37;32.47;;;10.63;;
7791;SDS011;3940;49.892;10.886;2022-10-30T00:05:21;30.63;;;12.10;;
7791;SDS011;3940;49.892;10.886;2022-10-30T00:08:05;14.20;;;10.70;;
7791;SDS011;3940;49.892;10.886;2022-10-30T00:10:50;19.00;;;12.20;;
7791;SDS011;3940;49.892;10.886;2022-10-30T00:13:34;20.87;;;11.40;;
7791;SDS011;3940;49.892;10.886;2022-10-30T00:16:19;17.43;;;11.43;;
7791;SDS011;3940;49.892;10.886;2022-10-30T00:19:03;19.73;;;9.93;;
7791;SDS011;3940;49.892;10.886;2022-10-30T00:21:51;18.40;;;10.80;;
7791;SDS011;3940;49.892;10.886;2022-10-30T00:24:38;14.90;;;10.57;;
7791;SDS011;3940;49.892;10.886;2022-10-30T00:27:29;11.40;;;9.57;;
7791;SDS011;3940;49.892;10.886;2022-10-30T00:30:35;21.03;;;11.80;;
7791;SDS011;3940;49.892;10.886;2022-10-30T00:33:23;15.17;;;10.43;;
7791;SDS011;3940;49.892;10.886;2022-10-30T00:36:08;18.10;;;10.80;;
7791;SDS011;3940;49.892;10.886;2022-10-30T00:39:04;12.97;;;11.67;;
7791;SDS011;3940;49.892;10.886;2022-10-30T00:41:49;21.10;;;11.20;;
7791;SDS011;3940;49.892;10.886;2022-10-30T00:44:35;17.40;;;11.37;;
7791;SDS011;3940;49.892;10.886;2022-10-30T00:47:27;18.67;;;10.60;;
7791;SDS011;3940;49.892;10.886;2022-10-30T00:50:22;31.37;;;10.60;;
7791;SDS011;3940;49.892;10.886;2022-10-30T00:53:11;11.80;;;9.33;;
7791;SDS011;3940;49.892;10.886;2022-10-30T00:55:59;12.30;;;10.77;;
7791;SDS011;3940;49.892;10.886;2022-10-30T00:58:50;16.73;;;9.73;;
7791;SDS011;3940;49.892;10.886;2022-10-30T01:01:40;16.63;;;10.90;;
7791;SDS011;3940;49.892;10.886;2022-10-30T01:04:50;17.27;;;11.23;;
7791;SDS011;3940;49.892;10.886;2022-10-30T01:07:36;16.10;;;11.53;;
7791;SDS011;3940;49.892;10.886;2022-10-30T01:10:22;20.07;;;10.40;;
7791;SDS011;3940;49.892;10.886;2022-10-30T01:13:07;11.37;;;10.27;;
7791;SDS011;3940;49.892;10.886;2022-10-30T01:19:33;14.97;;;11.00;;
7791;SDS011;3940;49.892;10.886;2022-10-30T01:22:51;15.77;;;9.77;;
7791;SDS011;3940;49.892;10.886;2022-10-30T01:26:12;19.83;;;10.77;;
7791;SDS011;3940;49.892;10.886;2022-10-30T01:29:19;16.23;;;10.73;;
7791;SDS011;3940;49.892;10.886;2022-10-30T01:32:59;13.00;;;9.67;;
7791;SDS011;3940;49.892;10.886;2022-10-30T01:36:20;14.10;;;9.17;;
7791;SDS011;3940;49.892;10.886;2022-10-30T01:39:12;17.63;;;10.10;;
7791;SDS011;3940;49.892;10.886;2022-10-30T01:48:43;15.10;;;11.40;;
7791;SDS011;3940;49.892;10.886;2022-10-30T01:51:50;13.30;;;9.30;;
7791;SDS011;3940;49.892;10.886;2022-10-30T01:55:09;14.77;;;9.73;;
7791;SDS011;3940;49.892;10.886;2022-10-30T01:58:20;20.40;;;9.80;;
7791;SDS011;3940;49.892;10.886;2022-10-30T02:01:14;17.20;;;10.63;;
7791;SDS011;3940;49.892;10.886;2022-10-30T02:04:26;10.83;;;8.47;;
7791;SDS011;3940;49.892;10.886;2022-10-30T02:07:13;10.33;;;8.57;;
7791;SDS011;3940;49.892;10.886;2022-10-30T02:10:03;12.00;;;9.73;;
7791;SDS011;3940;49.892;10.886;2022-10-30T02:13:10;17.03;;;12.60;;
7791;SDS011;3940;49.892;10.886;2022-10-30T02:16:02;10.47;;;8.47;;
7791;SDS011;3940;49.892;10.886;2022-10-30T02:19:07;10.00;;;8.23;;
7791;SDS011;3940;49.892;10.886;2022-10-30T02:22:13;18.13;;;9.80;;
7791;SDS011;3940;49.892;10.886;2022-10-30T02:24:57;12.63;;;9.37;;
7791;SDS011;3940;49.892;10.886;2022-10-30T02:27:50;9.37;;;8.43;;
7791;SDS011;3940;49.892;10.886;2022-10-30T02:30:40;9.53;;;8.57;;
7791;SDS011;3940;49.892;10.886;2022-10-30T02:33:35;12.60;;;9.57;;
7791;SDS011;3940;49.892;10.886;2022-10-30T02:36:41;14.50;;;8.83;;
7791;SDS011;3940;49.892;10.886;2022-10-30T02:39:49;16.03;;;9.80;;
7791;SDS011;3940;49.892;10.886;2022-10-30T02:42:39;12.20;;;9.13;;
7791;SDS011;3940;49.892;10.886;2022-10-30T02:45:25;14.80;;;8.30;;
7791;SDS011;3940;49.892;10.886;2022-10-30T02:48:33;9.70;;;8.67;;
7791;SDS011;3940;49.892;10.886;2022-10-30T02:51:19;17.60;;;9.10;;
7791;SDS011;3940;49.892;10.886;2022-10-30T02:54:07;11.03;;;8.77;;
7791;SDS011;3940;49.892;10.886;2022-10-30T02:57:13;17.13;;;8.97;;
7791;SDS011;3940;49.892;10.886;2022-10-30T02:59:59;13.03;;;7.67;;
7791;SDS011;3940;49.892;10.886;2022-10-30T03:02:45;8.50;;;7.40;;
7791;SDS011;3940;49.892;10.886;2022-10-30T03:05:31;14.87;;;8.80;;
7791;SDS011;3940;49.892;10.886;2022-10-30T03:08:18;9.60;;;8.60;;
7791;SDS011;3940;49.892;10.886;2022-10-30T03:11:05;19.20;;;9.50;;
7791;SDS011;3940;49.892;10.886;2022-10-30T03:13:52;10.30;;;9.27;;
7791;SDS011;3940;49.892;10.886;2022-10-30T03:16:37;9.73;;;8.20;;
7791;SDS011;3940;49.892;10.886;2022-10-30T03:19:24;13.03;;;8.73;;
7791;SDS011;3940;49.892;10.886;2022-10-30T03:22:12;11.93;;;8.77;;
7791;SDS011;3940;49.892;10.886;2022-10-30T03:24:59;10.90;;;7.57;;
7791;SDS011;3940;49.892;10.886;2022-10-30T03:27:44;8.73;;;7.47;;
7791;SDS011;3940;49.892;10.886;2022-10-30T03:30:35;10.23;;;8.10;;
7791;SDS011;3940;49.892;10.886;2022-10-30T03:33:44;8.80;;;7.90;;
7791;SDS011;3940;49.892;10.886;2022-10-30T03:36:33;10.40;;;7.60;;
7791;SDS011;3940;49.892;10.886;2022-10-30T03:39:17;11.10;;;8.10;;
7791;SDS011;3940;49.892;10.886;2022-10-30T03:42:07;13.37;;;8.40;;
7791;SDS011;3940;49.892;10.886;2022-10-30T03:44:57;11.20;;;9.00;;
7791;SDS011;3940;49.892;10.886;2022-10-30T03:47:43;14.33;;;8.83;;
7791;SDS011;3940;49.892;10.886;2022-10-30T03:50:32;17.67;;;8.20;;
7791;SDS011;3940;49.892;10.886;2022-10-30T03:53:20;16.80;;;9.40;;
7791;SDS011;3940;49.892;10.886;2022-10-30T03:56:06;10.87;;;7.83;;
7791;SDS011;3940;49.892;10.886;2022-10-30T03:58:52;9.10;;;8.17;;
7791;SDS011;3940;49.892;10.886;2022-10-30T04:01:38;12.70;;;8.10;;
7791;SDS011;3940;49.892;10.886;2022-10-30T04:04:24;8.40;;;7.50;;
7791;SDS011;3940;49.892;10.886;2022-10-30T04:07:10;12.17;;;7.20;;
7791;SDS011;3940;49.892;10.886;2022-10-30T04:09:59;9.23;;;7.63;;
7791;SDS011;3940;49.892;10.886;2022-10-30T04:12:47;12.53;;;7.87;;
7791;SDS011;3940;49.892;10.886;2022-10-30T04:15:32;11.97;;;7.60;;
7791;SDS011;3940;49.892;10.886;2022-10-30T04:18:19;12.20;;;8.40;;
7791;SDS011;3940;49.892;10.886;2022-10-30T04:21:06;12.00;;;7.97;;
7791;SDS011;3940;49.892;10.886;2022-10-30T04:23:52;12.23;;;7.50;;
7791;SDS011;3940;49.892;10.886;2022-10-30T04:26:39;17.40;;;8.57;;
7791;SDS011;3940;49.892;10.886;2022-10-30T04:29:23;12.40;;;8.30;;
7791;SDS011;3940;49.892;10.886;2022-10-30T04:32:08;9.03;;;8.20;;
7791;SDS011;3940;49.892;10.886;2022-10-30T04:34:53;10.20;;;7.67;;
7791;SDS011;3940;49.892;10.886;2022-10-30T04:38:01;10.40;;;8.07;;
7791;SDS011;3940;49.892;10.886;2022-10-30T04:40:57;9.57;;;7.80;;
7791;SDS011;3940;49.892;10.886;2022-10-30T04:43:47;13.77;;;8.30;;
7791;SDS011;3940;49.892;10.886;2022-10-30T04:46:33;11.97;;;7.57;;
7791;SDS011;3940;49.892;10.886;2022-10-30T04:49:22;15.67;;;6.90;;
7791;SDS011;3940;49.892;10.886;2022-10-30T04:52:11;12.57;;;7.83;;
7791;SDS011;3940;49.892;10.886;2022-10-30T04:54:57;12.27;;;7.30;;
7791;SDS011;3940;49.892;10.886;2022-10-30T04:57:43;10.70;;;7.23;;
7791;SDS011;3940;49.892;10.886;2022-10-30T05:00:27;11.60;;;7.87;;
7791;SDS011;3940;49.892;10.886;2022-10-30T05:03:18;15.17;;;7.97;;
7791;SDS011;3940;49.892;10.886;2022-10-30T05:06:21;13.67;;;8.23;;
7791;SDS011;3940;49.892;10.886;2022-10-30T05:09:08;8.73;;;7.70;;
7791;SDS011;3940;49.892;10.886;2022-10-30T05:11:54;9.70;;;7.13;;
7791;SDS011;3940;49.892;10.886;2022-10-30T05:14:39;10.23;;;8.27;;
7791;SDS011;3940;49.892;10.886;2022-10-30T05:17:25;11.00;;;8.40;;
7791;SDS011;3940;49.892;10.886;2022-10-30T05:20:18;16.93;;;7.77;;
7791;SDS011;3940;49.892;10.886;2022-10-30T05:23:04;9.37;;;8.60;;
7791;SDS011;3940;49.892;10.886;2022-10-30T05:25:59;9.80;;;8.63;;
7791;SDS011;3940;49.892;10.886;2022-10-30T05:29:06;16.10;;;9.10;;
7791;SDS011;3940;49.892;10.886;2022-10-30T05:31:51;13.30;;;8.70;;
7791;SDS011;3940;49.892;10.886;2022-10-30T05:34:41;7.93;;;7.27;;
7791;SDS011;3940;49.892;10.886;2022-10-30T05:37:49;20.70;;;7.73;;
7791;SDS011;3940;49.892;10.886;2022-10-30T05:40:35;9.43;;;7.37;;
7791;SDS011;3940;49.892;10.886;2022-10-30T05:43:22;13.23;;;8.13;;
7791;SDS011;3940;49.892;10.886;2022-10-30T05:46:07;11.40;;;7.10;;
7791;SDS011;3940;49.892;10.886;2022-10-30T05:48:53;12.80;;;6.93;;
7791;SDS011;3940;49.892;10.886;2022-10-30T05:51:39;14.90;;;9.30;;
7791;SDS011;3940;49.892;10.886;2022-10-30T05:54:29;11.07;;;6.97;;
7791;SDS011;3940;49.892;10.886;2022-10-30T05:57:36;16.57;;;7.43;;
7791;SDS011;3940;49.892;10.886;2022-10-30T06:00:20;10.93;;;7.83;;
7791;SDS011;3940;49.892;10.886;2022-10-30T06:03:09;9.13;;;8.23;;
7791;SDS011;3940;49.892;10.886;2022-10-30T06:05:55;10.77;;;7.50;;
7791;SDS011;3940;49.892;10.886;2022-10-30T06:08:44;17.33;;;9.47;;
7791;SDS011;3940;49.892;10.886;2022-10-30T06:11:29;13.20;;;8.57;;
7791;SDS011;3940;49.892;10.886;2022-10-30T06:14:16;14.60;;;7.43;;
7791;SDS011;3940;49.892;10.886;2022-10-30T06:17:06;13.13;;;8.00;;
7791;SDS011;3940;49.892;10.886;2022-10-30T06:19:50;13.00;;;8.33;;
7791;SDS011;3940;49.892;10.886;2022-10-30T06:22:36;12.63;;;8.10;;
7791;SDS011;3940;49.892;10.886;2022-10-30T06:25:22;11.60;;;7.83;;
7791;SDS011;3940;49.892;10.886;2022-10-30T06:28:32;13.67;;;8.53;;
7791;SDS011;3940;49.892;10.886;2022-10-30T06:31:17;13.80;;;8.93;;
7791;SDS011;3940;49.892;10.886;2022-10-30T06:34:03;11.30;;;9.30;;
7791;SDS011;3940;49.892;10.886;2022-10-30T06:36:50;14.27;;;8.67;;
7791;SDS011;3940;49.892;10.886;2022-10-30T06:39:36;21.83;;;9.10;;
7791;SDS011;3940;49.892;10.886;2022-10-30T06:42:21;19.30;;;10.50;;
7791;SDS011;3940;49.892;10.886;2022-10-30T06:45:27;20.77;;;11.17;;
7791;SDS011;3940;49.892;10.886;2022-10-30T06:48:13;11.03;;;10.00;;
7791;SDS011;3940;49.892;10.886;2022-10-30T06:51:08;21.23;;;9.50;;
7791;SDS011;3940;49.892;10.886;2022-10-30T06:53:54;15.73;;;9.23;;
7791;SDS011;3940;49.892;10.886;2022-10-30T06:56:41;16.23;;;9.63;;
7791;SDS011;3940;49.892;10.886;2022-10-30T06:59:26;13.93;;;8.40;;
7791;SDS011;3940;49.892;10.886;2022-10-30T07:02:11;11.10;;;9.30;;
7791;SDS011;3940;49.892;10.886;2022-10-30T07:04:59;13.23;;;9.33;;
7791;SDS011;3940;49.892;10.886;2022-10-30T07:07:47;8.40;;;7.53;;
7791;SDS011;3940;49.892;10.886;2022-10-30T07:10:35;12.53;;;9.07;;
7791;SDS011;3940;49.892;10.886;2022-10-30T07:13:25;9.87;;;8.30;;
7791;SDS011;3940;49.892;10.886;2022-10-30T07:16:09;16.20;;;8.77;;
7791;SDS011;3940;49.892;10.886;2022-10-30T07:18:53;12.63;;;9.80;;
7791;SDS011;3940;49.892;10.886;2022-10-30T07:21:46;13.60;;;8.07;;
7791;SDS011;3940;49.892;10.886;2022-10-30T07:24:39;12.87;;;8.30;;
7791;SDS011;3940;49.892;10.886;2022-10-30T07:27:25;8.70;;;7.90;;
7791;SDS011;3940;49.892;10.886;2022-10-30T07:30:11;15.70;;;9.53;;
7791;SDS011;3940;49.892;10.886;2022-10-30T07:33:01;11.67;;;7.87;;
7791;SDS011;3940;49.892;10.886;2022-10-30T07:35:50;16.30;;;9.10;;
7791;SDS011;3940;49.892;10.886;2022-10-30T07:38:35;11.60;;;8.43;;
7791;SDS011;3940;49.892;10.886;2022-10-30T07:41:21;14.83;;;9.00;;
7791;SDS011;3940;49.892;10.886;2022-10-30T07:44:10;9.23;;;8.03;;
7791;SDS011;3940;49.892;10.886;2022-10-30T07:46:58;12.93;;;9.03;;
7791;SDS011;3940;49.892;10.886;2022-10-30T07:49:42;14.50;;;10.40;;
7791;SDS011;3940;49.892;10.886;2022-10-30T07:52:29;14.60;;;10.73;;
7791;SDS011;3940;49.892;10.886;2022-10-30T07:55:16;13.47;;;10.60;;
7791;SDS011;3940;49.892;10.886;2022-10-30T07:58:00;12.90;;;9.80;;
7791;SDS011;3940;49.892;10.886;2022-10-30T08:00:45;18.73;;;10.97;;
7791;SDS011;3940;49.892;10.886;2022-10-30T08:03:32;13.40;;;9.63;;
7791;SDS011;3940;49.892;10.886;2022-10-30T08:06:16;9.90;;;9.00;;
7791;SDS011;3940;49.892;10.886;2022-10-30T08:09:01;11.60;;;9.37;;
7791;SDS011;3940;49.892;10.886;2022-10-30T08:11:47;13.47;;;10.97;;
7791;SDS011;3940;49.892;10.886;2022-10-30T08:14:32;12.07;;;9.60;;
7791;SDS011;3940;49.892;10.886;2022-10-30T08:17:17;14.60;;;9.80;;
7791;SDS011;3940;49.892;10.886;2022-10-30T08:20:05;9.90;;;9.00;;
7791;SDS011;3940;49.892;10.886;2022-10-30T08:22:56;16.27;;;9.80;;
7791;SDS011;3940;49.892;10.886;2022-10-30T08:26:04;14.10;;;10.07;;
7791;SDS011;3940;49.892;10.886;2022-10-30T08:28:50;13.10;;;9.60;;
7791;SDS011;3940;49.892;10.886;2022-10-30T08:31:37;14.67;;;10.57;;
7791;SDS011;3940;49.892;10.886;2022-10-30T08:34:24;12.80;;;10.20;;
7791;SDS011;3940;49.892;10.886;2022-10-30T08:37:10;10.67;;;9.57;;
7791;SDS011;3940;49.892;10.886;2022-10-30T08:39:58;14.17;;;10.77;;
7791;SDS011;3940;49.892;10.886;2022-10-30T08:42:48;13.93;;;9.80;;
7791;SDS011;3940;49.892;10.886;2022-10-30T08:45:34;14.97;;;9.80;;
7791;SDS011;3940;49.892;10.886;2022-10-30T08:48:20;12.43;;;10.03;;
7791;SDS011;3940;49.892;10.886;2022-10-30T08:51:06;10.47;;;9.23;;
7791;SDS011;3940;49.892;10.886;2022-10-30T08:53:51;9.53;;;8.10;;
7791;SDS011;3940;49.892;10.886;2022-10-30T08:56:43;14.63;;;9.10;;
7791;SDS011;3940;49.892;10.886;2022-10-30T08:59:31;18.00;;;9.10;;
7791;SDS011;3940;49.892;10.886;2022-10-30T09:02:17;16.40;;;10.67;;
7791;SDS011;3940;49.892;10.886;2022-10-30T09:05:06;10.60;;;8.83;;
7791;SDS011;3940;49.892;10.886;2022-10-30T09:07:56;10.87;;;8.90;;
7791;SDS011;3940;49.892;10.886;2022-10-30T09:10:43;13.23;;;8.07;;
7791;SDS011;3940;49.892;10.886;2022-10-30T09:13:27;9.03;;;7.80;;
7791;SDS011;3940;49.892;10.886;2022-10-30T09:16:12;6.70;;;6.10;;
7791;SDS011;3940;49.892;10.886;2022-10-30T09:18:57;12.00;;;7.90;;
7791;SDS011;3940;49.892;10.886;2022-10-30T09:21:41;8.00;;;7.10;;
7791;SDS011;3940;49.892;10.886;2022-10-30T09:24:26;8.50;;;7.03;;
7791;SDS011;3940;49.892;10.886;2022-10-30T09:27:10;9.73;;;6.80;;
7791;SDS011;3940;49.892;10.886;2022-10-30T09:29:55;6.90;;;6.20;;
7791;SDS011;3940;49.892;10.886;2022-10-30T09:32:41;10.43;;;6.60;;
7791;SDS011;3940;49.892;10.886;2022-10-30T09:35:27;6.60;;;6.00;;
7791;SDS011;3940;49.892;10.886;2022-10-30T09:38:34;8.70;;;7.17;;
7791;SDS011;3940;49.892;10.886;2022-10-30T09:41:25;8.50;;;6.50;;
7791;SDS011;3940;49.892;10.886;2022-10-30T09:44:33;7.03;;;6.30;;
7791;SDS011;3940;49.892;10.886;2022-10-30T09:47:54;13.33;;;8.70;;
7791;SDS011;3940;49.892;10.886;2022-10-30T09:54:51;7.93;;;7.13;;
7791;SDS011;3940;49.892;10.886;2022-10-30T10:00:47;9.60;;;8.37;;
7791;SDS011;3940;49.892;10.886;2022-10-30T10:03:48;12.53;;;8.43;;
7791;SDS011;3940;49.892;10.886;2022-10-30T10:06:43;9.10;;;8.17;;
7791;SDS011;3940;49.892;10.886;2022-10-30T10:09:30;9.60;;;7.53;;
7791;SDS011;3940;49.892;10.886;2022-10-30T10:12:23;10.10;;;8.80;;
7791;SDS011;3940;49.892;10.886;2022-10-30T10:15:15;13.50;;;8.70;;
7791;SDS011;3940;49.892;10.886;2022-10-30T10:18:29;9.33;;;7.93;;
7791;SDS011;3940;49.892;10.886;2022-10-30T10:21:23;9.37;;;7.47;;
7791;SDS011;3940;49.892;10.886;2022-10-30T10:24:17;8.10;;;6.77;;
7791;SDS011;3940;49.892;10.886;2022-10-30T10:27:08;7.77;;;6.67;;
7791;SDS011;3940;49.892;10.886;2022-10-30T10:30:16;9.80;;;6.73;;
7791;SDS011;3940;49.892;10.886;2022-10-30T10:33:09;8.40;;;6.53;;
7791;SDS011;3940;49.892;10.886;2022-10-30T10:36:22;9.13;;;6.37;;
7791;SDS011;3940;49.892;10.886;2022-10-30T10:39:24;7.17;;;6.37;;
7791;SDS011;3940;49.892;10.886;2022-10-30T10:42:19;14.37;;;7.17;;
7791;SDS011;3940;49.892;10.886;2022-10-30T10:45:23;5.97;;;5.47;;
7791;SDS011;3940;49.892;10.886;2022-10-30T10:48:46;6.83;;;6.23;;
7791;SDS011;3940;49.892;10.886;2022-10-30T10:51:50;8.40;;;5.23;;
7791;SDS011;3940;49.892;10.886;2022-10-30T10:54:41;10.00;;;7.40;;
7791;SDS011;3940;49.892;10.886;2022-10-30T10:57:28;11.00;;;6.10;;
7791;SDS011;3940;49.892;10.886;2022-10-30T11:00:18;10.83;;;6.87;;
7791;SDS011;3940;49.892;10.886;2022-10-30T11:03:09;16.53;;;10.10;;
7791;SDS011;3940;49.892;10.886;2022-10-30T11:05:58;8.20;;;6.17;;
7791;SDS011;3940;49.892;10.886;2022-10-30T11:08:47;9.17;;;5.87;;
7791;SDS011;3940;49.892;10.886;2022-10-30T11:11:35;7.87;;;6.93;;
7791;SDS011;3940;49.892;10.886;2022-10-30T11:14:21;10.30;;;6.80;;
7791;SDS011;3940;49.892;10.886;2022-10-30T11:17:17;8.60;;;7.13;;
7791;SDS011;3940;49.892;10.886;2022-10-30T11:20:18;7.83;;;6.03;;
7791;SDS011;3940;49.892;10.886;2022-10-30T11:26:26;13.13;;;6.80;;
7791;SDS011;3940;49.892;10.886;2022-10-30T11:29:13;5.67;;;5.17;;
7791;SDS011;3940;49.892;10.886;2022-10-30T11:32:04;7.37;;;6.60;;
7791;SDS011;3940;49.892;10.886;2022-10-30T11:40:56;18.67;;;6.57;;
7791;SDS011;3940;49.892;10.886;2022-10-30T11:43:40;6.60;;;5.20;;
7791;SDS011;3940;49.892;10.886;2022-10-30T11:46:27;11.70;;;5.80;;
7791;SDS011;3940;49.892;10.886;2022-10-30T11:52:13;10.03;;;5.90;;
7791;SDS011;3940;49.892;10.886;2022-10-30T11:55:02;4.93;;;4.53;;
7791;SDS011;3940;49.892;10.886;2022-10-30T11:57:55;8.97;;;7.57;;
7791;SDS011;3940;49.892;10.886;2022-10-30T12:00:40;11.00;;;6.83;;
7791;SDS011;3940;49.892;10.886;2022-10-30T12:03:28;8.07;;;5.70;;
7791;SDS011;3940;49.892;10.886;2022-10-30T12:09:19;12.40;;;6.70;;
7791;SDS011;3940;49.892;10.886;2022-10-30T12:12:09;9.33;;;6.80;;
7791;SDS011;3940;49.892;10.886;2022-10-30T12:14:55;8.33;;;5.20;;
7791;SDS011;3940;49.892;10.886;2022-10-30T12:17:53;8.73;;;7.43;;
7791;SDS011;3940;49.892;10.886;2022-10-30T12:20:46;12.03;;;7.00;;
7791;SDS011;3940;49.892;10.886;2022-10-30T12:23:34;12.03;;;5.50;;
7791;SDS011;3940;49.892;10.886;2022-10-30T12:26:19;9.00;;;6.00;;
7791;SDS011;3940;49.892;10.886;2022-10-30T12:29:07;5.70;;;4.97;;
7791;SDS011;3940;49.892;10.886;2022-10-30T12:31:59;7.63;;;5.70;;
7791;SDS011;3940;49.892;10.886;2022-10-30T12:34:50;12.83;;;7.03;;
7791;SDS011;3940;49.892;10.886;2022-10-30T12:37:42;8.23;;;5.67;;
7791;SDS011;3940;49.892;10.886;2022-10-30T12:40:29;15.10;;;6.30;;
7791;SDS011;3940;49.892;10.886;2022-10-30T12:43:17;7.97;;;6.43;;
7791;SDS011;3940;49.892;10.886;2022-10-30T12:46:13;9.07;;;5.77;;
7791;SDS011;3940;49.892;10.886;2022-10-30T12:49:19;9.37;;;5.20;;
7791;SDS011;3940;49.892;10.886;2022-10-30T12:52:25;9.70;;;5.70;;
7791;SDS011;3940;49.892;10.886;2022-10-30T12:55:17;6.93;;;5.80;;
7791;SDS011;3940;49.892;10.886;2022-10-30T12:58:49;7.83;;;5.67;;
7791;SDS011;3940;49.892;10.886;2022-10-30T13:01:23;8.13;;;5.63;;
7791;SDS011;3940;49.892;10.886;2022-10-30T13:04:17;8.40;;;5.90;;
7791;SDS011;3940;49.892;10.886;2022-10-30T13:07:23;13.17;;;6.67;;
7791;SDS011;3940;49.892;10.886;2022-10-30T13:10:26;7.33;;;5.53;;
7791;SDS011;3940;49.892;10.886;2022-10-30T13:13:25;10.33;;;6.27;;
7791;SDS011;3940;49.892;10.886;2022-10-30T13:16:26;8.27;;;5.63;;
7791;SDS011;3940;49.892;10.886;2022-10-30T13:19:12;7.57;;;6.70;;
7791;SDS011;3940;49.892;10.886;2022-10-30T13:21:59;13.33;;;8.37;;
7791;SDS011;3940;49.892;10.886;2022-10-30T13:28:09;6.07;;;5.47;;
7791;SDS011;3940;49.892;10.886;2022-10-30T13:31:09;4.87;;;4.43;;
7791;SDS011;3940;49.892;10.886;2022-10-30T13:34:06;12.07;;;6.07;;
7791;SDS011;3940;49.892;10.886;2022-10-30T13:37:34;11.50;;;6.63;;
7791;SDS011;3940;49.892;10.886;2022-10-30T13:40:31;11.27;;;6.73;;
7791;SDS011;3940;49.892;10.886;2022-10-30T13:43:27;9.33;;;5.80;;
7791;SDS011;3940;49.892;10.886;2022-10-30T13:52:50;4.90;;;4.40;;
7791;SDS011;3940;49.892;10.886;2022-10-30T13:55:38;5.67;;;5.10;;
7791;SDS011;3940;49.892;10.886;2022-10-30T13:58:25;8.20;;;5.10;;
7791;SDS011;3940;49.892;10.886;2022-10-30T14:01:22;14.20;;;7.37;;
7791;SDS011;3940;49.892;10.886;2022-10-30T14:04:17;12.10;;;7.80;;
7791;SDS011;3940;49.892;10.886;2022-10-30T14:10:38;10.13;;;5.50;;
7791;SDS011;3940;49.892;10.886;2022-10-30T14:13:43;6.43;;;5.70;;
7791;SDS011;3940;49.892;10.886;2022-10-30T14:16:40;14.70;;;7.57;;
7791;SDS011;3940;49.892;10.886;2022-10-30T14:19:26;10.53;;;7.27;;
7791;SDS011;3940;49.892;10.886;2022-10-30T14:22:21;10.83;;;7.80;;
7791;SDS011;3940;49.892;10.886;2022-10-30T14:25:11;9.50;;;6.00;;
7791;SDS011;3940;49.892;10.886;2022-10-30T14:27:56;13.87;;;7.50;;
7791;SDS011;3940;49.892;10.886;2022-10-30T14:31:06;7.93;;;5.80;;
7791;SDS011;3940;49.892;10.886;2022-10-30T14:33:54;10.67;;;6.83;;
7791;SDS011;3940;49.892;10.886;2022-10-30T14:36:47;19.30;;;8.50;;
7791;SDS011;3940;49.892;10.886;2022-10-30T14:39:37;12.27;;;7.77;;
7791;SDS011;3940;49.892;10.886;2022-10-30T14:42:27;13.40;;;8.23;;
7791;SDS011;3940;49.892;10.886;2022-10-30T14:45:37;15.20;;;9.30;;
7791;SDS011;3940;49.892;10.886;2022-10-30T14:52:20;15.73;;;7.40;;
7791;SDS011;3940;49.892;10.886;2022-10-30T14:55:27;13.50;;;6.90;;
7791;SDS011;3940;49.892;10.886;2022-10-30T14:58:15;15.07;;;8.80;;
7791;SDS011;3940;49.892;10.886;2022-10-30T15:01:27;19.90;;;9.70;;
7791;SDS011;3940;49.892;10.886;2022-10-30T15:04:27;16.13;;;10.90;;
7791;SDS011;3940;49.892;10.886;2022-10-30T15:07:37;18.37;;;12.17;;
7791;SDS011;3940;49.892;10.886;2022-10-30T15:10:31;24.40;;;11.27;;
7791;SDS011;3940;49.892;10.886;2022-10-30T15:13:17;12.57;;;9.60;;
7791;SDS011;3940;49.892;10.886;2022-10-30T15:16:05;14.30;;;10.07;;
7791;SDS011;3940;49.892;10.886;2022-10-30T15:18:54;22.47;;;10.20;;
7791;SDS011;3940;49.892;10.886;2022-10-30T15:21:45;11.37;;;9.07;;
7791;SDS011;3940;49.892;10.886;2022-10-30T15:24:33;18.67;;;10.30;;
7791;SDS011;3940;49.892;10.886;2022-10-30T15:27:18;21.57;;;10.30;;
7791;SDS011;3940;49.892;10.886;2022-10-30T15:30:04;17.63;;;10.63;;
7791;SDS011;3940;49.892;10.886;2022-10-30T15:32:49;12.80;;;9.13;;
7791;SDS011;3940;49.892;10.886;2022-10-30T15:35:34;17.63;;;11.07;;
7791;SDS011;3940;49.892;10.886;2022-10-30T15:38:18;17.90;;;8.63;;
7791;SDS011;3940;49.892;10.886;2022-10-30T15:41:02;17.50;;;8.30;;
7791;SDS011;3940;49.892;10.886;2022-10-30T15:43:47;19.10;;;11.70;;
7791;SDS011;3940;49.892;10.886;2022-10-30T15:46:31;18.60;;;9.73;;
7791;SDS011;3940;49.892;10.886;2022-10-30T15:49:19;11.73;;;8.50;;
7791;SDS011;3940;49.892;10.886;2022-10-30T15:52:12;11.50;;;9.70;;
7791;SDS011;3940;49.892;10.886;2022-10-30T15:55:00;19.77;;;8.50;;
7791;SDS011;3940;49.892;10.886;2022-10-30T15:57:49;21.27;;;9.50;;
7791;SDS011;3940;49.892;10.886;2022-10-30T16:00:35;17.10;;;10.50;;
7791;SDS011;3940;49.892;10.886;2022-10-30T16:03:20;14.30;;;7.10;;
7791;SDS011;3940;49.892;10.886;2022-10-30T16:06:06;11.50;;;9.80;;
7791;SDS011;3940;49.892;10.886;2022-10-30T16:09:02;18.10;;;10.93;;
7791;SDS011;3940;49.892;10.886;2022-10-30T16:11:47;20.70;;;10.47;;
7791;SDS011;3940;49.892;10.886;2022-10-30T16:14:33;17.87;;;9.03;;
7791;SDS011;3940;49.892;10.886;2022-10-30T16:17:19;12.40;;;7.93;;
7791;SDS011;3940;49.892;10.886;2022-10-30T16:20:04;9.37;;;7.93;;
7791;SDS011;3940;49.892;10.886;2022-10-30T16:22:49;12.73;;;9.67;;
7791;SDS011;3940;49.892;10.886;2022-10-30T16:25:33;12.00;;;8.43;;
7791;SDS011;3940;49.892;10.886;2022-10-30T16:28:36;21.77;;;11.30;;
7791;SDS011;3940;49.892;10.886;2022-10-30T16:31:20;18.47;;;12.60;;
7791;SDS011;3940;49.892;10.886;2022-10-30T16:34:09;20.93;;;11.43;;
7791;SDS011;3940;49.892;10.886;2022-10-30T16:36:57;19.40;;;11.33;;
7791;SDS011;3940;49.892;10.886;2022-10-30T16:39:42;16.60;;;11.73;;
7791;SDS011;3940;49.892;10.886;2022-10-30T16:42:27;16.37;;;8.90;;
7791;SDS011;3940;49.892;10.886;2022-10-30T16:48:27;19.43;;;10.97;;
7791;SDS011;3940;49.892;10.886;2022-10-30T16:51:18;20.37;;;11.40;;
7791;SDS011;3940;49.892;10.886;2022-10-30T16:54:04;16.40;;;12.87;;
7791;SDS011;3940;49.892;10.886;2022-10-30T16:56:49;19.13;;;13.17;;
7791;SDS011;3940;49.892;10.886;2022-10-30T16:59:36;13.10;;;11.70;;
7791;SDS011;3940;49.892;10.886;2022-10-30T17:02:28;20.93;;;13.87;;
7791;SDS011;3940;49.892;10.886;2022-10-30T17:05:18;17.20;;;12.20;;
7791;SDS011;3940;49.892;10.886;2022-10-30T17:11:16;26.40;;;10.43;;
7791;SDS011;3940;49.892;10.886;2022-10-30T17:14:04;21.30;;;12.83;;
7791;SDS011;3940;49.892;10.886;2022-10-30T17:20:13;24.17;;;12.33;;
7791;SDS011;3940;49.892;10.886;2022-10-30T17:23:15;16.53;;;13.87;;
7791;SDS011;3940;49.892;10.886;2022-10-30T17:26:08;15.40;;;12.00;;
7791;SDS011;3940;49.892;10.886;2022-10-30T17:28:54;20.27;;;14.03;;
7791;SDS011;3940;49.892;10.886;2022-10-30T17:31:41;26.70;;;17.30;;
7791;SDS011;3940;49.892;10.886;2022-10-30T17:34:26;17.97;;;12.37;;
7791;SDS011;3940;49.892;10.886;2022-10-30T17:37:11;15.87;;;10.13;;
7791;SDS011;3940;49.892;10.886;2022-10-30T17:39:57;31.43;;;12.10;;
7791;SDS011;3940;49.892;10.886;2022-10-30T17:42:41;17.93;;;11.30;;
7791;SDS011;3940;49.892;10.886;2022-10-30T17:45:26;15.43;;;10.00;;
7791;SDS011;3940;49.892;10.886;2022-10-30T17:48:12;21.27;;;12.17;;
7791;SDS011;3940;49.892;10.886;2022-10-30T17:50:58;15.97;;;11.23;;
7791;SDS011;3940;49.892;10.886;2022-10-30T17:53:42;16.00;;;8.93;;
7791;SDS011;3940;49.892;10.886;2022-10-30T17:56:27;16.97;;;12.90;;
7791;SDS011;3940;49.892;10.886;2022-10-30T17:59:14;12.33;;;10.70;;
7791;SDS011;3940;49.892;10.886;2022-10-30T18:01:59;17.80;;;13.00;;
7791;SDS011;3940;49.892;10.886;2022-10-30T18:04:43;16.10;;;10.33;;
7791;SDS011;3940;49.892;10.886;2022-10-30T18:07:28;20.07;;;10.77;;
7791;SDS011;3940;49.892;10.886;2022-10-30T18:10:12;12.80;;;9.30;;
7791;SDS011;3940;49.892;10.886;2022-10-30T18:12:57;13.90;;;9.60;;